createdAt,value
2023-05-02T00:02:04.742Z,10.90
2023-05-02T00:04:51.662Z,8.50
2023-05-02T00:07:37.837Z,11.63
2023-05-02T00:10:23.846Z,11.43
2023-05-02T00:13:09.715Z,11.43
2023-05-02T00:15:56.122Z,12.70
2023-05-02T00:18:41.994Z,9.65
2023-05-02T00:21:29.422Z,13.45
2023-05-02T00:24:17.532Z,9.10
2023-05-02T00:27:07.032Z,10.98
2023-05-02T00:29:54.081Z,14.05
2023-05-02T00:32:40.873Z,14.15
2023-05-02T00:35:26.569Z,13.07
2023-05-02T00:38:14.693Z,11.77
2023-05-02T00:41:00.855Z,12.55
2023-05-02T00:43:47.445Z,15.57
2023-05-02T00:46:33.212Z,16.27
2023-05-02T00:49:20.190Z,14.43
2023-05-02T00:52:07.833Z,12.70
2023-05-02T00:54:54.558Z,15.82
2023-05-02T00:57:40.992Z,13.85
2023-05-02T01:00:33.031Z,15.35
2023-05-02T01:03:38.588Z,13.75
2023-05-02T01:06:37.888Z,13.35
2023-05-02T01:09:54.206Z,13.65
2023-05-02T01:12:50.287Z,13.73
2023-05-02T01:15:39.277Z,12.52
2023-05-02T01:18:31.941Z,15.65
2023-05-02T01:21:18.006Z,16.55
2023-05-02T01:24:12.786Z,10.57
2023-05-02T01:27:14.725Z,12.48
2023-05-02T01:30:02.657Z,14.77
2023-05-02T01:32:50.227Z,18.25
2023-05-02T01:35:38.064Z,13.68
2023-05-02T01:38:25.381Z,12.23
2023-05-02T01:41:12.734Z,12.77
2023-05-02T01:43:59.769Z,12.60
2023-05-02T01:46:46.692Z,11.98
2023-05-02T01:49:34.004Z,13.75
2023-05-02T01:52:22.000Z,13.38
2023-05-02T01:55:10.014Z,13.00
2023-05-02T01:57:57.780Z,14.95
2023-05-02T02:00:45.625Z,18.88
2023-05-02T02:03:32.252Z,18.08
2023-05-02T02:06:22.037Z,12.07
2023-05-02T02:09:08.896Z,16.33
2023-05-02T02:12:04.419Z,13.60
2023-05-02T02:15:24.799Z,18.60
2023-05-02T02:18:14.822Z,11.60
2023-05-02T02:21:03.009Z,14.15
2023-05-02T02:23:49.993Z,11.63
2023-05-02T02:26:36.843Z,14.90
2023-05-02T02:29:23.094Z,9.60
2023-05-02T02:32:09.306Z,12.43
2023-05-02T02:34:55.601Z,13.77
2023-05-02T02:37:46.468Z,12.10
2023-05-02T02:40:40.962Z,11.30
2023-05-02T02:43:44.470Z,12.75
2023-05-02T02:46:39.896Z,13.50
2023-05-02T02:49:48.549Z,11.20
2023-05-02T02:52:44.308Z,12.80
2023-05-02T02:56:03.183Z,12.65
2023-05-02T02:59:05.903Z,12.82
2023-05-02T03:02:13.367Z,10.55
2023-05-02T03:05:03.367Z,11.00
2023-05-02T03:07:49.716Z,12.48
2023-05-02T03:10:36.016Z,13.75
2023-05-02T03:13:22.768Z,12.52
2023-05-02T03:16:11.543Z,10.55
2023-05-02T03:18:57.833Z,14.75
2023-05-02T03:21:43.741Z,13.40
2023-05-02T03:24:37.559Z,13.07
2023-05-02T03:27:24.147Z,11.77
2023-05-02T03:30:12.380Z,13.80
2023-05-02T03:32:58.516Z,13.27
2023-05-02T03:35:44.924Z,11.77
2023-05-02T03:38:31.631Z,11.27
2023-05-02T03:41:22.980Z,13.88
2023-05-02T03:44:15.047Z,13.05
2023-05-02T03:47:04.334Z,14.27
2023-05-02T03:49:59.440Z,14.88
2023-05-02T03:52:46.958Z,14.02
2023-05-02T03:55:34.209Z,12.52
2023-05-02T03:58:21.350Z,15.13
2023-05-02T04:01:17.231Z,14.88
2023-05-02T04:04:08.740Z,15.63
2023-05-02T04:06:59.995Z,14.35
2023-05-02T04:09:46.735Z,12.98
2023-05-02T04:12:32.893Z,15.35
2023-05-02T04:15:20.134Z,13.70
2023-05-02T04:18:07.810Z,15.43
2023-05-02T04:20:55.075Z,16.50
2023-05-02T04:23:43.738Z,16.48
2023-05-02T04:26:30.051Z,15.85
2023-05-02T04:29:22.922Z,13.43
2023-05-02T04:32:10.668Z,12.77
2023-05-02T04:34:56.937Z,15.18
2023-05-02T04:37:44.326Z,15.68
2023-05-02T04:40:30.711Z,11.43
2023-05-02T04:43:24.579Z,13.15
2023-05-02T04:46:18.050Z,12.65
2023-05-02T04:49:04.166Z,14.38
2023-05-02T04:51:52.180Z,13.75
2023-05-02T04:54:39.402Z,13.48
2023-05-02T04:57:25.704Z,13.10
2023-05-02T05:00:16.284Z,13.88
2023-05-02T05:03:02.894Z,13.13
2023-05-02T05:05:49.581Z,15.75
2023-05-02T05:08:40.241Z,14.75
2023-05-02T05:11:26.931Z,14.43
2023-05-02T05:14:13.070Z,17.10
2023-05-02T05:17:02.578Z,15.07
2023-05-02T05:19:49.318Z,13.80
2023-05-02T05:22:39.951Z,13.70
2023-05-02T05:25:27.801Z,13.02
2023-05-02T05:28:16.036Z,20.15
2023-05-02T05:31:09.584Z,15.07
2023-05-02T05:34:01.539Z,15.35
2023-05-02T05:36:48.200Z,13.82
2023-05-02T05:39:34.900Z,14.50
2023-05-02T05:42:21.508Z,15.13
2023-05-02T05:45:12.490Z,14.67
2023-05-02T05:47:58.645Z,13.60
2023-05-02T05:50:47.630Z,16.23
2023-05-02T05:53:34.356Z,16.35
2023-05-02T05:56:23.443Z,17.15
2023-05-02T05:59:19.526Z,17.45
2023-05-02T06:02:06.972Z,18.30
2023-05-02T06:04:53.907Z,18.75
2023-05-02T06:07:42.535Z,15.15
2023-05-02T06:10:31.522Z,15.88
2023-05-02T06:13:19.295Z,15.23
2023-05-02T06:16:07.042Z,17.65
2023-05-02T06:18:53.854Z,15.55
2023-05-02T06:21:39.877Z,14.48
2023-05-02T06:24:26.329Z,13.70
2023-05-02T06:27:12.219Z,17.35
2023-05-02T06:29:59.109Z,12.55
2023-05-02T06:32:45.093Z,16.20
2023-05-02T06:35:31.958Z,17.00
2023-05-02T06:38:18.687Z,13.68
2023-05-02T06:41:05.571Z,13.55
2023-05-02T06:43:51.752Z,28.38
2023-05-02T06:46:39.106Z,19.65
2023-05-02T06:49:26.557Z,19.55
2023-05-02T06:52:12.553Z,21.73
2023-05-02T06:54:58.873Z,18.80
2023-05-02T06:57:45.533Z,15.90
2023-05-02T07:00:34.989Z,18.23
2023-05-02T07:03:21.552Z,15.30
2023-05-02T07:06:07.515Z,15.93
2023-05-02T07:08:53.689Z,17.02
2023-05-02T07:11:39.473Z,16.33
2023-05-02T07:14:25.708Z,12.68
2023-05-02T07:17:12.170Z,14.60
2023-05-02T07:20:01.277Z,34.75
2023-05-02T07:22:47.513Z,15.23
2023-05-02T07:25:33.708Z,13.80
2023-05-02T07:28:19.934Z,15.45
2023-05-02T07:31:06.678Z,15.45
2023-05-02T07:33:52.702Z,16.13
2023-05-02T07:36:39.697Z,13.98
2023-05-02T07:39:26.179Z,13.93
2023-05-02T07:42:12.642Z,12.70
2023-05-02T07:44:59.434Z,14.63
2023-05-02T07:47:47.010Z,11.80
2023-05-02T07:50:36.959Z,11.70
2023-05-02T07:53:23.078Z,10.35
2023-05-02T07:56:09.083Z,8.10
2023-05-02T07:58:55.356Z,8.43
2023-05-02T08:01:44.922Z,7.30
2023-05-02T08:04:32.348Z,8.80
2023-05-02T08:07:18.470Z,7.65
2023-05-02T08:10:07.840Z,6.28
2023-05-02T08:12:56.244Z,4.53
2023-05-02T08:15:43.005Z,5.57
2023-05-02T08:18:29.230Z,5.85
2023-05-02T08:21:15.542Z,4.38
2023-05-02T08:24:01.534Z,3.35
2023-05-02T08:26:47.655Z,5.35
2023-05-02T08:29:33.587Z,4.30
2023-05-02T08:32:20.838Z,5.72
2023-05-02T08:35:07.682Z,4.10
2023-05-02T08:37:55.910Z,3.05
2023-05-02T08:40:43.079Z,3.53
2023-05-02T08:43:31.896Z,4.35
2023-05-02T08:46:18.081Z,4.10
2023-05-02T08:49:05.626Z,4.57
2023-05-02T08:51:52.005Z,4.22
2023-05-02T08:54:47.850Z,3.60
2023-05-02T08:57:33.512Z,3.60
2023-05-02T09:00:19.967Z,6.18
2023-05-02T09:03:34.676Z,7.30
2023-05-02T09:06:23.123Z,5.38
2023-05-02T09:09:08.842Z,3.97
2023-05-02T09:11:55.348Z,4.75
2023-05-02T09:14:43.923Z,4.10
2023-05-02T09:17:45.516Z,4.32
2023-05-02T09:20:40.516Z,3.75
2023-05-02T09:23:41.527Z,4.75
2023-05-02T09:29:20.960Z,3.97
2023-05-02T09:32:08.116Z,4.75
2023-05-02T09:35:07.983Z,5.07
2023-05-02T09:37:58.081Z,3.75
2023-05-02T09:40:57.923Z,4.10
2023-05-02T09:43:44.415Z,4.43
2023-05-02T09:46:41.134Z,5.25
2023-05-02T09:49:47.042Z,10.65
2023-05-02T09:52:33.885Z,5.85
2023-05-02T09:55:23.313Z,10.20
2023-05-02T09:58:21.775Z,4.80
2023-05-02T10:01:07.751Z,6.47
2023-05-02T10:03:54.627Z,6.13
2023-05-02T10:06:40.970Z,8.52
2023-05-02T10:09:28.528Z,9.25
2023-05-02T10:12:16.628Z,6.32
2023-05-02T10:15:04.543Z,6.15
2023-05-02T10:17:52.556Z,6.00
2023-05-02T10:20:49.706Z,9.35
2023-05-02T10:23:38.666Z,6.10
2023-05-02T10:26:26.295Z,8.45
2023-05-02T10:29:13.050Z,8.13
2023-05-02T10:32:01.795Z,6.70
2023-05-02T10:34:52.092Z,10.65
2023-05-02T10:37:40.611Z,8.80
2023-05-02T10:40:27.869Z,7.00
2023-05-02T10:43:16.829Z,5.65
2023-05-02T10:46:04.389Z,10.82
2023-05-02T10:49:09.835Z,8.15
2023-05-02T10:51:58.109Z,9.43
2023-05-02T10:54:46.420Z,7.63
2023-05-02T10:57:33.263Z,8.80
2023-05-02T11:00:24.379Z,7.18
2023-05-02T11:03:12.640Z,9.88
2023-05-02T11:06:07.220Z,8.02
2023-05-02T11:08:54.259Z,20.75
2023-05-02T11:11:45.878Z,6.93
2023-05-02T11:14:43.771Z,9.20
2023-05-02T11:18:03.692Z,9.88
2023-05-02T11:20:50.742Z,5.97
2023-05-02T11:23:40.720Z,7.68
2023-05-02T11:26:29.179Z,8.30
2023-05-02T11:29:55.113Z,6.07
2023-05-02T11:32:50.973Z,7.95
2023-05-02T11:35:49.202Z,6.22
2023-05-02T11:38:41.441Z,5.88
2023-05-02T11:41:44.133Z,6.88
2023-05-02T11:44:36.091Z,9.75
2023-05-02T11:47:22.729Z,7.88
2023-05-02T11:50:14.907Z,7.60
2023-05-02T11:53:01.828Z,7.72
2023-05-02T11:55:53.381Z,10.70
2023-05-02T11:58:40.981Z,9.02
2023-05-02T12:01:30.410Z,8.82
2023-05-02T12:04:22.068Z,5.68
2023-05-02T12:07:10.156Z,5.63
2023-05-02T12:09:58.184Z,7.45
2023-05-02T12:12:44.536Z,6.57
2023-05-02T12:15:36.387Z,5.70
2023-05-02T12:18:28.444Z,6.22
2023-05-02T12:21:15.536Z,10.25
2023-05-02T12:24:07.204Z,4.93
2023-05-02T12:27:18.058Z,6.05
2023-05-02T12:30:07.013Z,7.65
2023-05-02T12:33:04.119Z,5.85
2023-05-02T12:35:51.287Z,4.78
2023-05-02T12:38:38.005Z,5.68
2023-05-02T12:41:37.197Z,4.70
2023-05-02T12:44:41.553Z,5.07
2023-05-02T12:47:27.579Z,2.53
2023-05-02T12:50:14.195Z,5.22
2023-05-02T12:53:12.549Z,4.50
2023-05-02T12:56:03.921Z,2.78
2023-05-02T12:58:51.159Z,5.55
2023-05-02T13:01:38.226Z,2.47
2023-05-02T13:04:38.986Z,5.78
2023-05-02T13:07:25.651Z,3.15
2023-05-02T13:10:14.707Z,6.03
2023-05-02T13:13:01.782Z,4.15
2023-05-02T13:15:47.636Z,7.45
2023-05-02T13:18:34.252Z,9.77
2023-05-02T13:21:20.482Z,7.03
2023-05-02T13:24:06.904Z,8.63
2023-05-02T13:26:52.747Z,8.85
2023-05-02T13:29:39.254Z,8.88
2023-05-02T13:32:25.892Z,5.97
2023-05-02T13:35:15.960Z,8.98
2023-05-02T13:38:02.500Z,6.33
2023-05-02T13:40:50.053Z,9.25
2023-05-02T13:43:35.958Z,9.35
2023-05-02T13:46:22.571Z,11.70
2023-05-02T13:49:08.512Z,7.47
2023-05-02T13:51:54.966Z,6.05
2023-05-02T13:54:41.056Z,5.85
2023-05-02T13:57:27.433Z,6.40
2023-05-02T14:00:17.096Z,5.82
2023-05-02T14:03:03.696Z,8.23
2023-05-02T14:05:56.102Z,9.40
2023-05-02T14:08:43.537Z,5.85
2023-05-02T14:11:30.026Z,8.95
2023-05-02T14:14:18.079Z,6.85
2023-05-02T14:17:05.758Z,8.80
2023-05-02T14:19:55.091Z,8.05
2023-05-02T14:22:46.374Z,8.18
2023-05-02T14:25:33.029Z,9.52
2023-05-02T14:28:23.089Z,7.90
2023-05-02T14:31:13.002Z,9.00
2023-05-02T14:34:02.724Z,8.00
2023-05-02T14:36:49.094Z,8.07
2023-05-02T14:39:37.992Z,10.32
2023-05-02T14:42:25.196Z,10.48
2023-05-02T14:45:13.625Z,6.13
2023-05-02T14:48:02.008Z,8.25
2023-05-02T14:53:42.425Z,7.57
2023-05-02T14:56:39.791Z,5.32
2023-05-02T14:59:28.965Z,9.50
2023-05-02T15:02:15.322Z,4.47
2023-05-02T15:05:03.269Z,5.90
2023-05-02T15:07:49.705Z,7.10
2023-05-02T15:10:38.154Z,6.88
2023-05-02T15:13:24.533Z,4.47
2023-05-02T15:16:11.591Z,7.35
2023-05-02T15:18:58.438Z,5.10
2023-05-02T15:21:46.753Z,7.70
2023-05-02T15:24:33.440Z,5.40
2023-05-02T15:27:21.003Z,4.97
2023-05-02T15:30:08.752Z,7.20
2023-05-02T15:32:55.685Z,9.60
2023-05-02T15:35:58.748Z,5.93
2023-05-02T15:38:47.381Z,6.70
2023-05-02T15:41:37.858Z,4.40
2023-05-02T15:44:29.041Z,6.45
2023-05-02T15:47:19.662Z,6.80
2023-05-02T15:50:11.007Z,7.78
2023-05-02T15:53:00.630Z,6.05
2023-05-02T15:55:48.716Z,6.18
2023-05-02T15:58:34.670Z,6.25
2023-05-02T16:01:24.682Z,6.28
2023-05-02T16:04:21.159Z,5.00
2023-05-02T16:07:13.953Z,5.35
2023-05-02T16:10:11.136Z,6.70
2023-05-02T16:12:59.365Z,5.03
2023-05-02T16:15:59.670Z,5.55
2023-05-02T16:18:51.637Z,6.43
2023-05-02T16:21:48.942Z,7.22
2023-05-02T16:24:43.283Z,5.18
2023-05-02T16:27:31.058Z,6.15
2023-05-02T16:30:18.068Z,4.65
2023-05-02T16:33:04.675Z,3.78
2023-05-02T16:36:01.797Z,4.95
2023-05-02T16:38:48.141Z,3.55
2023-05-02T16:41:36.168Z,3.80
2023-05-02T16:44:22.483Z,3.85
2023-05-02T16:47:09.385Z,3.80
2023-05-02T16:49:58.618Z,4.75
2023-05-02T16:52:45.897Z,5.23
2023-05-02T16:55:32.320Z,5.03
2023-05-02T16:58:18.761Z,3.58
2023-05-02T17:01:12.656Z,4.68
2023-05-02T17:04:00.444Z,3.90
2023-05-02T17:06:49.078Z,6.18
2023-05-02T17:09:37.453Z,7.10
2023-05-02T17:12:25.795Z,3.30
2023-05-02T17:15:14.167Z,5.05
2023-05-02T17:17:59.923Z,3.25
2023-05-02T17:20:47.269Z,4.50
2023-05-02T17:23:33.360Z,4.57
2023-05-02T17:26:19.861Z,4.18
2023-05-02T17:29:05.943Z,4.30
2023-05-02T17:31:52.786Z,4.30
2023-05-02T17:34:39.052Z,3.40
2023-05-02T17:37:26.268Z,6.10
2023-05-02T17:40:12.529Z,3.10
2023-05-02T17:42:59.515Z,3.75
2023-05-02T17:45:45.842Z,4.65
2023-05-02T17:48:32.072Z,2.28
2023-05-02T17:51:18.455Z,7.75
2023-05-02T17:54:05.624Z,6.88
2023-05-02T17:56:52.491Z,10.27
2023-05-02T17:59:40.011Z,8.60
2023-05-02T18:02:27.721Z,4.45
2023-05-02T18:05:14.297Z,11.88
2023-05-02T18:07:59.795Z,8.23
2023-05-02T18:10:46.863Z,11.35
2023-05-02T18:13:34.452Z,5.55
2023-05-02T18:16:22.594Z,10.43
2023-05-02T18:19:08.598Z,10.55
2023-05-02T18:21:55.170Z,9.55
2023-05-02T18:24:41.804Z,10.77
2023-05-02T18:27:28.875Z,7.28
2023-05-02T18:30:15.001Z,8.73
2023-05-02T18:33:01.834Z,11.18
2023-05-02T18:35:49.288Z,8.68
2023-05-02T18:38:37.587Z,10.35
2023-05-02T18:41:23.460Z,9.90
2023-05-02T18:44:11.534Z,8.38
2023-05-02T18:47:01.181Z,12.80
2023-05-02T18:49:48.220Z,9.65
2023-05-02T18:52:34.582Z,8.70
2023-05-02T18:55:24.922Z,10.82
2023-05-02T18:58:11.172Z,9.80
2023-05-02T19:00:58.616Z,10.65
2023-05-02T19:03:45.628Z,6.85
2023-05-02T19:06:33.921Z,8.90
2023-05-02T19:09:22.030Z,11.10
2023-05-02T19:12:09.802Z,10.65
2023-05-02T19:14:57.818Z,9.65
2023-05-02T19:17:45.210Z,8.25
2023-05-02T19:20:33.785Z,10.30
2023-05-02T19:23:22.081Z,11.00
2023-05-02T19:26:13.269Z,12.88
2023-05-02T19:29:01.318Z,10.75
2023-05-02T19:31:47.847Z,12.38
2023-05-02T19:34:37.181Z,12.30
2023-05-02T19:37:23.851Z,11.20
2023-05-02T19:40:13.639Z,12.52
2023-05-02T19:43:00.442Z,12.18
2023-05-02T19:45:47.150Z,10.40
2023-05-02T19:48:33.520Z,13.60
2023-05-02T19:51:25.365Z,12.65
2023-05-02T19:54:11.984Z,16.98
2023-05-02T19:56:59.934Z,17.80
2023-05-02T19:59:48.783Z,24.33
2023-05-02T20:02:37.191Z,18.92
2023-05-02T20:05:24.597Z,19.35
2023-05-02T20:08:11.969Z,18.90
2023-05-02T20:11:01.635Z,19.15
2023-05-02T20:13:49.615Z,15.57
2023-05-02T20:16:37.236Z,13.05
2023-05-02T20:19:25.532Z,14.90
2023-05-02T20:22:13.458Z,17.27
2023-05-02T20:25:01.371Z,11.90
2023-05-02T20:27:48.962Z,11.88
2023-05-02T20:30:39.528Z,14.90
2023-05-02T20:33:37.040Z,9.50
2023-05-02T20:36:32.898Z,8.40
2023-05-02T20:39:22.108Z,11.52
2023-05-02T20:42:10.403Z,9.48
2023-05-02T20:44:59.526Z,13.60
2023-05-02T20:47:48.740Z,7.82
2023-05-02T20:50:36.557Z,14.18
2023-05-02T20:53:24.466Z,13.98
2023-05-02T20:56:11.561Z,15.27
2023-05-02T20:58:59.906Z,9.18
2023-05-02T21:01:47.699Z,12.27
2023-05-02T21:04:35.345Z,12.18
2023-05-02T21:07:22.395Z,13.00
2023-05-02T21:10:10.562Z,8.38
2023-05-02T21:12:57.670Z,11.65
2023-05-02T21:15:44.930Z,10.30
2023-05-02T21:18:32.213Z,13.68
2023-05-02T21:21:21.116Z,7.90
2023-05-02T21:24:10.008Z,10.57
2023-05-02T21:26:58.877Z,8.60
2023-05-02T21:29:46.127Z,10.45
2023-05-02T21:32:34.121Z,12.13
2023-05-02T21:35:20.666Z,7.95
2023-05-02T21:38:07.685Z,11.25
2023-05-02T21:40:53.922Z,11.13
2023-05-02T21:43:40.584Z,9.60
2023-05-02T21:46:26.818Z,9.23
2023-05-02T21:49:13.282Z,10.15
2023-05-02T21:51:59.312Z,8.88
2023-05-02T21:54:50.086Z,9.18
2023-05-02T22:00:24.793Z,10.43
2023-05-02T22:03:47.606Z,7.68
2023-05-02T22:06:34.734Z,8.20
2023-05-02T22:09:23.594Z,8.65
2023-05-02T22:12:10.045Z,6.95
2023-05-02T22:14:56.147Z,9.63
2023-05-02T22:17:43.501Z,8.43
2023-05-02T22:20:29.768Z,11.13
2023-05-02T22:23:16.561Z,9.13
2023-05-02T22:26:02.954Z,13.10
2023-05-02T22:28:49.784Z,11.60
2023-05-02T22:31:36.170Z,11.07
2023-05-02T22:34:23.213Z,8.55
2023-05-02T22:37:09.069Z,8.75
2023-05-02T22:39:56.015Z,9.13
2023-05-02T22:42:42.807Z,10.35
2023-05-02T22:45:29.396Z,11.70
2023-05-02T22:48:16.692Z,7.38
2023-05-02T22:51:04.024Z,10.05
2023-05-02T22:53:50.382Z,11.15
2023-05-02T22:56:37.190Z,7.93
2023-05-02T22:59:23.383Z,8.38
2023-05-02T23:02:14.478Z,9.82
2023-05-02T23:05:01.626Z,9.98
2023-05-02T23:07:49.808Z,10.27
2023-05-02T23:10:36.327Z,8.63
2023-05-02T23:13:24.263Z,8.32
2023-05-02T23:16:10.422Z,7.00
2023-05-02T23:18:57.231Z,7.05
2023-05-02T23:21:43.436Z,8.43
2023-05-02T23:24:30.636Z,8.15
2023-05-02T23:27:17.025Z,10.52
2023-05-02T23:30:04.319Z,9.90
2023-05-02T23:32:51.728Z,13.23
2023-05-02T23:35:38.716Z,12.60
2023-05-02T23:38:25.647Z,11.60
2023-05-02T23:41:12.401Z,9.27
2023-05-02T23:43:58.436Z,10.35
2023-05-02T23:46:45.127Z,11.77
2023-05-02T23:49:31.535Z,12.45
2023-05-02T23:52:18.346Z,10.32
2023-05-02T23:55:10.991Z,7.95
2023-05-02T23:57:57.824Z,10.50
